Time;durP1;ratioP1;P1;durP2;ratioP2;P2;SDS_P1;SDS_P2;PMS_P1;PMS_P2;Temp;Humidity;BMP_temperature;BMP_pressure;BME280_temperature;BME280_humidity;BME280_pressure;Samples;Min_cycle;Max_cycle;Signal;HPM_P1;HPM_P2
2022/06/04 00:00:00;;;;;;;31.58;19.58;;;;;;;12.84;97.25;96137.56;2064677;28;20050;-62
2022/06/04 00:01:01;;;;;;;32.15;19.95;;;;;;;12.88;97.16;96135.63;2056046;28;20054;-67
2022/06/04 00:02:03;;;;;;;39.28;21.52;;;;;;;12.86;97.50;96138.34;2056450;28;20054;-65
2022/06/04 00:03:04;;;;;;;38.60;21.45;;;;;;;12.86;97.28;96142.72;2064259;28;20045;-65
2022/06/04 00:04:06;;;;;;;27.17;16.77;;;;;;;12.82;97.17;96142.03;2064150;28;20054;-66
2022/06/04 00:05:08;;;;;;;29.95;17.73;;;;;;;12.78;97.29;96141.34;2047844;28;20043;-65
2022/06/04 00:06:09;;;;;;;33.22;20.20;;;;;;;12.77;97.09;96131.00;2056792;28;20055;-65
2022/06/04 00:07:11;;;;;;;31.55;19.48;;;;;;;12.76;97.44;96140.59;2064045;28;20046;-63
2022/06/04 00:08:12;;;;;;;23.27;15.90;;;;;;;12.82;97.44;96133.38;2048048;29;20051;-66
2022/06/04 00:09:15;;;;;;;26.08;16.52;;;;;;;12.81;97.29;96129.94;2056329;28;20058;-66
2022/06/04 00:15:44;;;;;;;26.00;16.75;;;;;;;12.77;97.40;96125.78;2074395;28;20084;-67
2022/06/04 00:16:45;;;;;;;38.90;21.00;;;;;;;12.73;97.34;96132.13;2072371;28;20045;-66
2022/06/04 00:17:46;;;;;;;45.40;22.25;;;;;;;12.74;97.52;96129.41;2072450;28;20046;-66
2022/06/04 00:18:47;;;;;;;19.23;15.05;;;;;;;12.71;97.59;96133.94;2056472;28;20042;-65
2022/06/04 00:19:48;;;;;;;30.80;18.77;;;;;;;12.82;97.37;96123.78;2064576;28;20050;-65
2022/06/04 00:20:50;;;;;;;25.38;15.55;;;;;;;12.75;97.29;96123.28;2086178;28;20096;-67
2022/06/04 00:21:51;;;;;;;33.60;19.60;;;;;;;12.74;97.12;96126.81;2078914;28;20056;-66
2022/06/04 00:22:59;;;;;;;37.45;21.77;;;;;;;12.70;97.40;96125.31;2068685;28;20050;-65
2022/06/04 00:24:00;;;;;;;29.60;18.27;;;;;;;12.67;97.32;96124.59;2080026;28;20053;-66
2022/06/04 00:25:01;;;;;;;29.58;19.17;;;;;;;12.65;97.40;96129.06;2072085;28;20053;-65
2022/06/04 00:26:04;;;;;;;40.70;21.40;;;;;;;12.65;97.35;96129.91;2055910;28;20284;-66
2022/06/04 00:27:05;;;;;;;43.50;22.85;;;;;;;12.66;97.26;96131.59;2064086;28;20393;-64
2022/06/04 00:28:07;;;;;;;34.67;18.25;;;;;;;12.69;97.12;96130.56;2072512;28;20552;-64
2022/06/04 00:29:09;;;;;;;23.02;16.15;;;;;;;12.66;97.00;96130.75;2073397;28;20053;-65
2022/06/04 00:30:10;;;;;;;47.47;25.65;;;;;;;12.63;97.38;96128.31;2071620;28;20038;-64
2022/06/04 00:31:12;;;;;;;20.05;15.07;;;;;;;12.58;97.10;96124.16;2079863;28;20056;-65
2022/06/04 00:32:13;;;;;;;42.28;22.20;;;;;;;12.59;97.02;96122.44;2071842;28;20037;-65
2022/06/04 00:33:16;;;;;;;29.45;16.75;;;;;;;12.58;97.15;96123.34;2072007;28;20046;-68
2022/06/04 00:34:17;;;;;;;27.75;17.45;;;;;;;12.56;97.18;96130.38;2078811;28;20064;-65
2022/06/04 00:35:18;;;;;;;29.00;18.35;;;;;;;12.57;97.25;96134.69;2064303;28;20045;-65
2022/06/04 00:36:19;;;;;;;28.17;19.15;;;;;;;12.57;97.39;96132.09;2055578;28;20047;-66
2022/06/04 00:37:20;;;;;;;34.83;20.15;;;;;;;12.56;97.20;96136.47;2055820;28;20677;-65
2022/06/04 00:38:23;;;;;;;43.70;22.48;;;;;;;12.56;97.59;96130.38;2055769;28;20050;-65
2022/06/04 00:39:24;;;;;;;43.15;22.73;;;;;;;12.58;97.63;96131.97;2057185;28;20051;-64
2022/06/04 00:40:32;;;;;;;35.53;20.83;;;;;;;12.58;97.33;96133.75;2063204;28;20073;-65
2022/06/04 00:41:40;;;;;;;50.03;24.63;;;;;;;12.56;97.49;96117.34;2065675;28;20046;-66
2022/06/04 00:42:41;;;;;;;21.13;14.77;;;;;;;12.53;97.11;96126.19;2072227;28;20065;-66
2022/06/04 00:44:22;;;;;;;20.00;15.02;;;;;;;12.57;97.03;96126.88;2072011;28;20058;-65
2022/06/04 00:46:03;;;;;;;21.10;14.57;;;;;;;12.50;97.46;96130.72;2061569;28;20038;-65
2022/06/04 00:47:12;;;;;;;24.65;16.55;;;;;;;12.50;97.58;96128.09;2055741;28;20034;-65
2022/06/04 00:48:13;;;;;;;24.95;15.40;;;;;;;12.46;97.37;96130.03;2055138;28;20433;-65
2022/06/04 00:49:16;;;;;;;31.98;19.73;;;;;;;12.51;97.11;96138.47;2039965;29;20058;-65
2022/06/04 00:50:18;;;;;;;53.65;25.67;;;;;;;12.50;97.51;96139.38;2048627;28;20058;-63
2022/06/04 00:51:20;;;;;;;41.28;21.75;;;;;;;12.49;97.67;96139.47;2063513;28;20050;-65
2022/06/04 00:52:21;;;;;;;49.50;24.48;;;;;;;12.45;97.08;96141.38;2055986;28;20038;-67
2022/06/04 00:53:23;;;;;;;47.05;24.02;;;;;;;12.45;97.19;96136.16;2047873;28;20058;-65
2022/06/04 00:54:24;;;;;;;25.08;15.20;;;;;;;12.45;97.33;96138.75;2040274;28;20043;-66
2022/06/04 00:55:25;;;;;;;46.92;24.02;;;;;;;12.44;97.15;96137.09;2039785;29;20537;-64
2022/06/04 00:56:50;;;;;;;27.65;18.13;;;;;;;12.42;97.12;96143.31;2032304;29;20044;-65
2022/06/04 00:58:09;;;;;;;34.55;19.38;;;;;;;12.41;97.51;96137.25;2038341;29;20516;-65
2022/06/04 00:59:38;;;;;;;40.33;21.63;;;;;;;12.40;97.38;96150.34;2049902;28;20042;-66
2022/06/04 01:00:49;;;;;;;64.93;26.38;;;;;;;12.41;97.55;96145.06;2055173;28;20089;-65
2022/06/04 01:02:30;;;;;;;71.60;30.58;;;;;;;12.41;97.21;96144.22;2052206;28;20077;-65
2022/06/04 01:03:39;;;;;;;23.48;16.15;;;;;;;12.34;96.90;96141.09;2053200;28;20070;-66
2022/06/04 01:04:59;;;;;;;80.43;31.00;;;;;;;12.32;97.20;96153.34;2053087;28;20050;-65
2022/06/04 01:06:09;;;;;;;57.25;23.77;;;;;;;12.30;97.51;96145.63;2050618;28;20553;-66
2022/06/04 01:07:16;;;;;;;50.47;22.65;;;;;;;12.29;97.45;96143.09;2058323;28;20039;-67
2022/06/04 01:08:20;;;;;;;31.58;19.67;;;;;;;12.30;97.58;96144.78;2055830;28;20521;-65
2022/06/04 01:09:30;;;;;;;23.85;15.85;;;;;;;12.28;97.29;96142.25;2048432;28;20039;-62
2022/06/04 01:10:55;;;;;;;72.95;30.70;;;;;;;12.27;97.69;96140.56;2047826;29;20517;-64
2022/06/04 01:13:38;;;;;;;61.60;26.50;;;;;;;12.25;97.32;96145.03;2056213;28;20057;-63
2022/06/04 01:15:19;;;;;;;44.92;22.08;;;;;;;12.26;97.56;96146.69;2048231;29;20098;-65
2022/06/04 01:16:29;;;;;;;84.78;31.73;;;;;;;12.27;97.29;96147.53;2058607;28;20440;-66
2022/06/04 01:17:34;;;;;;;;;;;;;;;12.25;97.74;96150.22;2064937;28;20173;-64
2022/06/04 01:18:41;;;;;;;35.20;20.65;;;;;;;12.24;97.53;96145.09;2063472;28;20426;-64
2022/06/04 01:19:48;;;;;;;47.30;23.50;;;;;;;12.23;97.71;96140.81;2064151;28;20070;-67
2022/06/04 01:21:01;;;;;;;39.47;20.83;;;;;;;12.19;97.64;96140.13;2063402;28;20042;-66
2022/06/04 01:22:02;;;;;;;27.70;18.50;;;;;;;12.24;97.46;96137.28;2041077;29;20068;-66
2022/06/04 01:23:30;;;;;;;32.72;20.50;;;;;;;12.30;97.58;96144.78;2040763;29;20506;-66
2022/06/04 01:24:51;;;;;;;43.70;23.50;;;;;;;12.32;97.14;96135.97;2051585;28;20046;-64
2022/06/04 01:26:01;;;;;;;86.10;31.73;;;;;;;12.31;97.33;96141.25;2045335;28;20051;-65
2022/06/04 01:27:29;;;;;;;59.95;27.77;;;;;;;12.28;97.63;96137.03;2049176;28;20231;-66
2022/06/04 01:28:31;;;;;;;48.65;24.17;;;;;;;12.26;97.39;96133.66;2059201;28;20054;-62
2022/06/04 01:29:38;;;;;;;22.05;15.57;;;;;;;12.26;97.47;96133.66;2055931;28;20058;-68
2022/06/04 01:30:42;;;;;;;47.50;23.35;;;;;;;12.26;97.41;96138.88;2049168;28;20047;-65
2022/06/04 01:31:50;;;;;;;50.80;26.35;;;;;;;12.26;97.71;96132.84;2055782;28;20054;-66
2022/06/04 01:32:55;;;;;;;38.85;23.15;;;;;;;12.29;97.41;96130.06;2048670;28;20074;-68
2022/06/04 01:34:00;;;;;;;37.47;22.83;;;;;;;12.30;97.80;96142.19;2048948;28;20050;-65
2022/06/04 01:35:12;;;;;;;29.30;20.30;;;;;;;12.33;97.50;96142.84;2064729;28;20101;-65
2022/06/04 01:36:20;;;;;;;25.48;17.10;;;;;;;12.32;97.21;96137.72;2066357;28;20038;-66
2022/06/04 01:37:26;;;;;;;28.80;19.13;;;;;;;12.37;97.22;96146.13;2065364;28;20069;-66
2022/06/04 01:38:32;;;;;;;36.33;21.27;;;;;;;12.34;97.38;96143.69;2067091;28;20049;-68
2022/06/04 01:42:04;;;;;;;27.92;16.88;;;;;;;12.31;97.50;96142.09;2065326;28;20047;-66
2022/06/04 01:43:07;;;;;;;25.17;15.73;;;;;;;12.33;97.63;96148.06;2057063;28;20051;-67
2022/06/04 01:44:11;;;;;;;30.35;17.50;;;;;;;12.32;97.37;96146.41;2057576;28;20547;-66
2022/06/04 01:45:14;;;;;;;29.20;16.85;;;;;;;12.32;97.51;96143.78;2050725;28;20454;-65
2022/06/04 01:46:25;;;;;;;34.55;19.92;;;;;;;12.34;97.63;96141.09;2049577;28;20094;-65
2022/06/04 01:47:27;;;;;;;24.10;16.67;;;;;;;12.33;97.44;96142.84;2059529;28;20050;-66
2022/06/04 01:48:28;;;;;;;33.65;18.42;;;;;;;12.34;97.83;96148.91;2049039;28;20059;-68
2022/06/04 01:49:32;;;;;;;30.02;18.02;;;;;;;12.32;97.29;96145.53;2041614;28;20044;-63
2022/06/04 01:50:37;;;;;;;44.40;22.45;;;;;;;12.31;97.38;96142.09;2057523;28;20053;-65
2022/06/04 01:51:39;;;;;;;31.45;19.83;;;;;;;12.30;97.36;96148.22;2073024;28;20771;-65
2022/06/04 01:52:40;;;;;;;25.10;16.70;;;;;;;12.31;97.71;96149.06;2057318;28;20051;-64
2022/06/04 01:53:41;;;;;;;38.92;22.48;;;;;;;12.31;97.22;96146.47;2056760;28;20046;-66
2022/06/04 01:54:48;;;;;;;24.92;14.90;;;;;;;12.28;97.50;96149.22;2073272;28;20071;-66
2022/06/04 01:55:54;;;;;;;28.63;19.15;;;;;;;12.27;97.80;96145.78;2081490;28;20056;-65
2022/06/04 01:57:00;;;;;;;37.33;21.00;;;;;;;12.26;97.16;96151.06;2064957;28;20046;-65
2022/06/04 01:58:04;;;;;;;35.58;21.20;;;;;;;12.31;97.31;96147.28;2066190;28;20053;-65
2022/06/04 01:59:10;;;;;;;29.58;16.95;;;;;;;12.29;97.71;96140.47;2065950;28;20046;-65
2022/06/04 02:00:15;;;;;;;24.15;15.95;;;;;;;12.28;97.71;96139.66;2049387;28;20047;-65
2022/06/04 02:01:19;;;;;;;33.35;20.17;;;;;;;12.24;97.51;96143.34;2049710;28;20047;-65
2022/06/04 02:02:26;;;;;;;27.00;17.48;;;;;;;12.28;97.36;96142.25;2041135;28;20849;-66
2022/06/04 02:03:32;;;;;;;35.85;19.50;;;;;;;12.26;97.58;96140.66;2051112;28;20533;-66
2022/06/04 02:04:36;;;;;;;33.22;19.83;;;;;;;12.25;97.84;96141.56;2045618;28;20047;-65
2022/06/04 02:05:43;;;;;;;34.90;19.10;;;;;;;12.22;97.30;96137.38;2042296;28;20048;-65
2022/06/04 02:07:29;;;;;;;22.52;15.60;;;;;;;12.22;97.20;96141.75;2058713;28;20568;-62
2022/06/04 02:09:11;;;;;;;26.67;18.13;;;;;;;12.23;97.34;96133.00;2052249;28;20055;-67
2022/06/04 02:10:24;;;;;;;29.25;18.45;;;;;;;12.25;97.40;96136.38;2060046;28;20038;-65
2022/06/04 02:11:25;;;;;;;30.02;18.27;;;;;;;12.20;97.50;96134.00;2068210;28;20035;-66
2022/06/04 02:12:28;;;;;;;31.90;19.70;;;;;;;12.21;97.75;96134.81;2056746;28;20049;-64
2022/06/04 02:13:29;;;;;;;31.52;18.55;;;;;;;12.19;97.49;96134.06;2049634;28;20058;-63
2022/06/04 02:14:30;;;;;;;22.83;14.88;;;;;;;12.19;97.38;96134.06;2064700;28;20055;-63
2022/06/04 02:15:35;;;;;;;48.53;22.42;;;;;;;12.17;97.85;96130.72;2064959;28;20046;-65
2022/06/04 02:16:42;;;;;;;53.00;24.80;;;;;;;12.18;97.85;96135.81;2065040;28;20057;-64
2022/06/04 02:17:45;;;;;;;70.10;27.60;;;;;;;12.16;97.44;96132.47;2066309;28;20073;-66
2022/06/04 02:18:48;;;;;;;58.38;26.50;;;;;;;12.14;97.49;96129.13;2072767;28;20053;-62
2022/06/04 02:19:49;;;;;;;55.53;26.15;;;;;;;12.12;97.84;96131.78;2072327;28;20100;-63
2022/06/04 02:20:50;;;;;;;63.72;27.55;;;;;;;12.12;97.36;96131.78;2056167;28;20109;-63
2022/06/04 02:21:53;;;;;;;69.45;30.30;;;;;;;12.12;97.37;96130.94;2056817;28;20043;-66
2022/06/04 02:22:54;;;;;;;67.07;27.30;;;;;;;12.08;97.37;96132.00;2048485;28;20051;-63
2022/06/04 02:23:55;;;;;;;34.70;19.00;;;;;;;12.05;97.21;96130.41;2049015;28;20059;-63
2022/06/04 02:24:56;;;;;;;61.22;26.40;;;;;;;12.04;97.45;96127.88;2056558;28;20463;-65
2022/06/04 02:25:58;;;;;;;63.85;27.25;;;;;;;12.01;97.19;96128.88;2033238;29;20052;-66
2022/06/04 02:27:01;;;;;;;47.42;22.90;;;;;;;12.01;97.72;96130.66;2048092;28;20043;-64
2022/06/04 02:28:02;;;;;;;42.60;22.05;;;;;;;12.00;97.58;96127.22;2057499;28;20433;-65
2022/06/04 02:29:04;;;;;;;62.40;27.60;;;;;;;12.02;97.79;96134.94;2048865;29;20062;-64
2022/06/04 02:30:06;;;;;;;50.42;24.38;;;;;;;12.01;97.79;96130.66;2048876;28;20528;-65
2022/06/04 02:31:31;;;;;;;32.10;18.77;;;;;;;12.02;97.81;96138.38;2049840;28;20054;-64
2022/06/04 02:32:39;;;;;;;44.35;21.15;;;;;;;11.97;97.22;96131.72;2054787;28;20038;-66
2022/06/04 02:34:03;;;;;;;43.17;22.40;;;;;;;11.97;97.17;96132.56;2041715;29;20047;-67
2022/06/04 02:35:13;;;;;;;50.83;24.48;;;;;;;11.99;97.53;96129.88;2050167;28;20074;-67
2022/06/04 02:36:22;;;;;;;57.53;25.13;;;;;;;11.99;97.34;96124.69;2061108;28;20050;-65
2022/06/04 02:37:45;;;;;;;59.45;24.95;;;;;;;11.94;97.42;96132.72;2049523;28;20058;-65
2022/06/04 02:38:51;;;;;;;69.78;28.60;;;;;;;11.95;97.88;96137.00;2051522;28;20046;-64
2022/06/04 02:40:08;;;;;;;64.90;26.92;;;;;;;11.93;97.49;96138.84;2049838;28;20047;-66
2022/06/04 02:41:20;;;;;;;78.68;29.02;;;;;;;11.93;97.80;96141.44;2050573;28;20059;-65
2022/06/04 02:42:44;;;;;;;63.58;26.52;;;;;;;11.87;97.52;96136.56;2060194;28;20047;-64
2022/06/04 02:43:49;;;;;;;46.97;21.88;;;;;;;11.85;97.77;96139.19;2064277;28;20424;-64
2022/06/04 02:44:52;;;;;;;33.05;18.98;;;;;;;11.84;97.72;96134.91;2049266;28;20529;-67
2022/06/04 02:46:01;;;;;;;28.25;18.52;;;;;;;11.82;97.36;96135.91;2057029;28;20062;-64
2022/06/04 02:47:26;;;;;;;51.50;23.52;;;;;;;11.78;97.32;96131.75;2064713;28;20054;-66
2022/06/04 02:48:30;;;;;;;49.47;23.27;;;;;;;11.78;97.01;96131.75;2067379;28;20042;-65
2022/06/04 02:49:37;;;;;;;63.75;27.15;;;;;;;11.78;97.47;96130.00;2063952;28;20050;-64
2022/06/04 02:50:45;;;;;;;66.93;27.55;;;;;;;11.81;97.25;96129.00;2042455;28;20541;-64
2022/06/04 02:51:49;;;;;;;61.05;25.65;;;;;;;11.77;97.60;96127.50;2036412;28;20059;-64
2022/06/04 02:52:51;;;;;;;61.00;26.73;;;;;;;11.78;98.04;96129.16;2050385;28;20047;-67
2022/06/04 02:53:52;;;;;;;41.88;20.98;;;;;;;11.77;97.43;96124.88;2064442;28;20094;-65
2022/06/04 02:55:02;;;;;;;44.85;22.60;;;;;;;11.77;97.35;96130.94;2056805;28;20050;-65
2022/06/04 02:56:10;;;;;;;54.63;25.92;;;;;;;11.75;97.86;96124.13;2058631;28;20525;-65
2022/06/04 02:57:12;;;;;;;77.15;29.23;;;;;;;11.78;97.66;96126.56;2056285;28;20440;-65
2022/06/04 02:58:15;;;;;;;34.25;20.05;;;;;;;11.77;97.68;96120.53;2056374;28;20054;-65
2022/06/04 02:59:17;;;;;;;77.35;29.90;;;;;;;11.81;97.90;96124.63;2048916;28;20043;-65
2022/06/04 03:00:20;;;;;;;43.92;21.77;;;;;;;11.81;97.39;96121.19;2048050;28;20066;-64
2022/06/04 03:01:22;;;;;;;63.08;26.67;;;;;;;11.81;97.29;96121.19;2042167;28;20048;-65
2022/06/04 03:02:23;;;;;;;100.55;30.92;;;;;;;11.83;97.27;96124.56;2048972;28;20049;-65
2022/06/04 03:03:25;;;;;;;259.83;44.30;;;;;;;11.83;97.42;96124.56;2048652;28;20070;-64
2022/06/04 03:04:26;;;;;;;80.32;27.20;;;;;;;11.83;97.86;96122.81;2064431;28;20065;-65
2022/06/04 03:05:27;;;;;;;41.58;20.67;;;;;;;11.84;97.17;96132.31;2072098;28;20443;-65
2022/06/04 03:06:30;;;;;;;87.03;31.73;;;;;;;11.84;97.37;96124.50;2064407;28;20524;-64
2022/06/04 03:07:32;;;;;;;80.22;30.35;;;;;;;11.83;97.88;96129.78;2057232;28;20043;-65
2022/06/04 03:08:36;;;;;;;66.15;28.13;;;;;;;11.81;97.30;96126.41;2064138;28;20050;-65
2022/06/04 03:09:38;;;;;;;87.50;34.47;;;;;;;11.79;97.43;96121.28;2058412;28;20055;-65
2022/06/04 03:10:39;;;;;;;91.28;34.25;;;;;;;11.80;97.77;96122.13;2063988;28;20042;-64
2022/06/04 03:11:43;;;;;;;100.95;35.45;;;;;;;11.78;97.50;96126.56;2072228;28;20447;-63
2022/06/04 03:12:44;;;;;;;114.15;35.83;;;;;;;11.77;97.34;96122.28;2080118;28;20597;-63
2022/06/04 03:13:46;;;;;;;101.80;33.53;;;;;;;11.76;97.61;96131.00;2064627;28;20046;-66
2022/06/04 03:14:47;;;;;;;141.52;39.55;;;;;;;11.74;97.46;96130.25;2072599;28;20049;-64
2022/06/04 03:15:48;;;;;;;163.98;41.95;;;;;;;11.73;97.61;96129.38;2081752;28;20033;-65
2022/06/04 03:16:49;;;;;;;319.95;53.42;;;;;;;11.72;97.82;96132.91;2080046;28;20053;-64
2022/06/04 03:17:51;;;;;;;250.20;45.38;;;;;;;11.69;97.92;96126.09;2056414;28;20532;-65
2022/06/04 03:18:52;;;;;;;434.77;59.72;;;;;;;11.68;97.42;96128.75;2064586;28;20046;-64
2022/06/04 03:19:53;;;;;;;312.67;48.88;;;;;;;11.69;97.51;96130.47;2072334;28;20050;-64
2022/06/04 03:20:54;;;;;;;191.15;39.33;;;;;;;11.70;97.36;96132.13;2063696;28;20054;-65
2022/06/04 03:21:55;;;;;;;248.63;43.10;;;;;;;11.65;97.36;96127.19;2064237;28;20050;-65
2022/06/04 03:22:57;;;;;;;258.92;48.92;;;;;;;11.63;97.35;96125.59;2080363;28;20053;-65
2022/06/04 03:23:58;;;;;;;457.55;63.75;;;;;;;11.64;97.66;96132.44;2072361;28;20049;-65
2022/06/04 03:24:59;;;;;;;53.55;22.65;;;;;;;11.61;97.88;96128.25;2063834;28;20050;-63
2022/06/04 03:26:00;;;;;;;150.82;36.45;;;;;;;11.61;97.35;96124.81;2056822;28;20054;-65
2022/06/04 03:27:01;;;;;;;257.35;46.13;;;;;;;11.60;97.38;96134.38;2056308;28;20061;-65
2022/06/04 03:28:03;;;;;;;175.55;40.42;;;;;;;11.59;97.89;96134.44;2056343;28;20533;-62
2022/06/04 03:29:04;;;;;;;139.60;33.75;;;;;;;11.59;97.08;96140.47;2064393;28;20054;-65
2022/06/04 03:30:06;;;;;;;427.27;65.00;;;;;;;11.59;97.87;96137.03;2072103;28;20190;-64
2022/06/04 03:31:08;;;;;;;189.98;41.42;;;;;;;11.58;97.95;96138.81;2064023;28;20508;-64
2022/06/04 03:32:09;;;;;;;337.73;54.80;;;;;;;11.58;97.40;96136.19;2056561;28;20046;-65
2022/06/04 03:33:10;;;;;;;242.52;44.85;;;;;;;11.59;97.40;96142.25;2048431;28;20043;-64
2022/06/04 03:34:11;;;;;;;240.93;47.63;;;;;;;11.61;97.52;96135.22;2063951;28;20049;-65
2022/06/04 03:35:14;;;;;;;43.88;20.88;;;;;;;11.61;97.80;96140.41;2056368;28;20046;-64
2022/06/04 03:36:15;;;;;;;230.20;47.78;;;;;;;11.62;97.65;96140.31;2064689;28;20046;-65
2022/06/04 03:37:16;;;;;;;264.20;50.08;;;;;;;11.63;97.38;96149.81;2063956;28;20042;-62
2022/06/04 03:38:17;;;;;;;470.40;61.63;;;;;;;11.65;97.33;96144.53;2064139;28;20050;-65
2022/06/04 03:39:19;;;;;;;467.13;62.42;;;;;;;11.64;97.36;96148.91;2055408;28;20053;-63
2022/06/04 03:40:20;;;;;;;299.98;51.67;;;;;;;11.66;97.25;96149.66;2047933;28;20051;-61
2022/06/04 03:41:21;;;;;;;229.65;37.75;;;;;;;11.65;97.68;96142.78;2047530;29;20533;-65
2022/06/04 03:42:22;;;;;;;435.20;63.80;;;;;;;11.64;97.82;96146.28;2048315;28;20437;-63
2022/06/04 03:43:23;;;;;;;126.63;29.65;;;;;;;11.66;97.18;96146.22;2055900;28;20560;-65
2022/06/04 03:44:24;;;;;;;252.25;42.08;;;;;;;11.68;97.54;96152.19;2048402;28;20529;-64
2022/06/04 03:45:26;;;;;;;179.20;38.22;;;;;;;11.68;97.47;96147.84;2064280;28;20154;-64
2022/06/04 03:46:28;;;;;;;519.00;71.05;;;;;;;11.70;97.81;96159.00;2073365;28;20065;-65
2022/06/04 03:47:33;;;;;;;299.20;50.35;;;;;;;11.71;97.37;96157.25;2056044;28;20610;-64
2022/06/04 03:48:35;;;;;;;242.40;50.53;;;;;;;11.69;97.99;96162.53;2049465;28;20059;-64
2022/06/04 03:49:36;;;;;;;270.98;55.42;;;;;;;11.71;97.71;96167.66;2057128;28;20441;-64
2022/06/04 03:50:38;;;;;;;185.73;42.83;;;;;;;11.71;97.82;96170.25;2056245;28;20047;-64
2022/06/04 03:51:39;;;;;;;181.70;42.75;;;;;;;11.69;97.37;96165.13;2055763;28;20544;-64
2022/06/04 03:52:41;;;;;;;132.13;40.50;;;;;;;11.72;97.44;96173.69;2056586;28;20054;-63
2022/06/04 03:53:42;;;;;;;209.05;47.33;;;;;;;11.68;97.90;96168.66;2056250;28;20046;-63
2022/06/04 03:54:59;;;;;;;102.18;30.38;;;;;;;11.73;98.05;96170.16;2048038;29;20444;-62
2022/06/04 03:56:01;;;;;;;124.88;39.78;;;;;;;11.71;97.26;96167.66;2054915;28;20490;-63
2022/06/04 03:58:29;;;;;;;32.90;22.13;;;;;;;11.71;97.51;96167.66;2061167;28;20049;-63
2022/06/04 03:59:31;;;;;;;62.63;31.88;;;;;;;11.73;97.38;96165.81;2064939;28;20050;-63
2022/06/04 04:00:34;;;;;;;80.88;35.35;;;;;;;11.71;98.20;96167.66;2071727;28;20058;-63
2022/06/04 04:01:35;;;;;;;68.05;31.92;;;;;;;11.69;98.24;96167.72;2063699;28;20061;-62
2022/06/04 04:02:37;;;;;;;39.63;26.88;;;;;;;11.70;97.84;96163.34;2056262;28;20053;-63
2022/06/04 04:03:38;;;;;;;39.75;25.92;;;;;;;11.71;98.28;96165.06;2063568;28;20084;-64
2022/06/04 04:04:39;;;;;;;25.38;20.25;;;;;;;11.73;97.82;96162.38;2072174;28;20042;-63
2022/06/04 04:05:48;;;;;;;27.55;20.55;;;;;;;11.79;97.66;96159.50;2055865;28;20053;-63
2022/06/04 04:06:49;;;;;;;34.95;24.52;;;;;;;11.80;97.97;96158.56;2057663;28;20097;-63
2022/06/04 04:07:51;;;;;;;37.45;25.00;;;;;;;11.82;97.52;96164.53;2063867;28;20081;-64
2022/06/04 04:08:52;;;;;;;36.75;24.35;;;;;;;11.85;97.91;96161.78;2055543;28;20103;-63
2022/06/04 04:09:54;;;;;;;24.55;19.27;;;;;;;11.90;97.57;96160.66;2067628;28;20061;-63
2022/06/04 04:10:55;;;;;;;31.63;22.83;;;;;;;11.94;98.04;96157.91;2079301;28;20053;-63
2022/06/04 04:11:57;;;;;;;27.73;20.33;;;;;;;11.97;97.94;96162.94;2071862;28;20050;-61
2022/06/04 04:12:58;;;;;;;21.08;17.40;;;;;;;12.01;97.62;96164.50;2071980;28;20046;-63
2022/06/04 04:13:59;;;;;;;34.10;23.65;;;;;;;12.03;97.87;96168.69;2080525;28;20053;-63
2022/06/04 04:15:00;;;;;;;22.25;18.10;;;;;;;12.07;98.01;96165.00;2080236;28;20060;-64
2022/06/04 04:16:02;;;;;;;27.30;20.63;;;;;;;12.10;97.68;96159.66;2080331;28;20123;-64
2022/06/04 04:17:04;;;;;;;33.97;24.42;;;;;;;12.13;97.93;96164.72;2071831;28;20054;-63
2022/06/04 04:18:06;;;;;;;18.80;16.10;;;;;;;12.16;97.55;96150.69;2057070;28;20047;-64
2022/06/04 04:19:07;;;;;;;23.58;17.10;;;;;;;12.23;98.06;96154.66;2065237;28;20046;-64
2022/06/04 04:20:14;;;;;;;20.17;17.35;;;;;;;12.27;97.82;96157.94;2056305;28;20086;-64
2022/06/04 04:21:19;;;;;;;25.02;19.38;;;;;;;12.29;97.65;96154.34;2064658;28;20462;-63
2022/06/04 04:22:20;;;;;;;31.70;22.27;;;;;;;12.32;97.67;96161.16;2064625;28;20053;-63
2022/06/04 04:23:21;;;;;;;24.85;19.40;;;;;;;12.34;98.07;96165.38;2056121;28;20516;-63
2022/06/04 04:24:23;;;;;;;28.40;21.48;;;;;;;12.36;97.96;96162.69;2072104;28;20042;-63
2022/06/04 04:25:25;;;;;;;23.17;19.02;;;;;;;12.32;98.06;96163.75;2080599;28;20057;-64
2022/06/04 04:26:26;;;;;;;19.73;16.65;;;;;;;12.36;97.62;96166.13;2080048;28;20045;-63
2022/06/04 04:27:27;;;;;;;20.30;17.70;;;;;;;12.42;97.37;96164.97;2080019;28;20100;-64
2022/06/04 04:28:29;;;;;;;20.70;17.48;;;;;;;12.43;97.60;96158.84;2072259;28;20462;-61
2022/06/04 04:29:30;;;;;;;20.13;17.23;;;;;;;12.46;97.65;96157.84;2063854;28;20049;-62
2022/06/04 04:30:33;;;;;;;24.08;17.75;;;;;;;12.48;97.30;96162.06;2063417;28;20046;-63
2022/06/04 04:31:34;;;;;;;21.13;16.17;;;;;;;12.54;97.84;96164.34;2071403;28;20208;-62
2022/06/04 04:32:36;;;;;;;17.02;15.02;;;;;;;12.60;97.76;96160.56;2071978;28;20057;-62
2022/06/04 04:33:38;;;;;;;19.92;16.15;;;;;;;12.63;97.46;96159.56;2071223;28;20061;-63
2022/06/04 04:34:39;;;;;;;20.90;15.90;;;;;;;12.69;97.26;96154.88;2067889;28;20062;-61
2022/06/04 04:35:41;;;;;;;22.15;18.58;;;;;;;12.68;97.52;96157.56;2055515;28;20046;-59
2022/06/04 04:36:45;;;;;;;20.63;16.73;;;;;;;12.68;97.81;96160.16;2056322;28;20054;-63
2022/06/04 04:37:46;;;;;;;20.45;17.00;;;;;;;12.66;97.71;96152.44;2063826;28;20094;-62
2022/06/04 04:38:49;;;;;;;19.10;15.93;;;;;;;12.66;97.86;96162.00;2063525;28;20053;-60
2022/06/04 04:39:50;;;;;;;17.75;15.77;;;;;;;12.71;97.26;96153.03;2069151;28;20618;-62
2022/06/04 04:40:52;;;;;;;17.52;15.05;;;;;;;12.75;97.49;96151.94;2059885;28;20057;-60
2022/06/04 04:41:53;;;;;;;17.70;14.05;;;;;;;12.76;97.44;96145.81;2055975;28;20334;-61
2022/06/04 04:42:55;;;;;;;19.42;16.27;;;;;;;12.78;97.23;96148.34;2055891;28;20050;-64
2022/06/04 04:43:56;;;;;;;16.48;12.45;;;;;;;12.88;97.11;96149.50;2063805;28;20053;-64
2022/06/04 04:44:57;;;;;;;15.35;12.93;;;;;;;12.91;97.50;96157.19;2071563;28;20527;-64
2022/06/04 04:46:02;;;;;;;17.25;14.82;;;;;;;12.94;97.43;96156.19;2056294;28;20046;-63
2022/06/04 04:47:03;;;;;;;17.65;14.38;;;;;;;12.97;97.45;96156.84;2041612;28;20052;-62
2022/06/04 04:48:05;;;;;;;17.13;14.55;;;;;;;12.98;97.67;96163.72;2059104;28;20042;-64
2022/06/04 04:49:06;;;;;;;17.27;15.10;;;;;;;12.99;97.45;96161.97;2055856;28;20051;-64
2022/06/04 04:50:12;;;;;;;16.00;14.13;;;;;;;13.04;97.45;96157.34;2055557;28;20065;-62
2022/06/04 04:51:18;;;;;;;13.75;11.90;;;;;;;13.08;97.57;96153.66;2070370;28;20046;-62
2022/06/04 04:52:19;;;;;;;14.20;12.65;;;;;;;13.14;97.34;96162.91;2074070;28;20056;-64
2022/06/04 04:53:20;;;;;;;16.50;12.88;;;;;;;13.11;97.10;96160.47;2070582;28;20045;-64
2022/06/04 04:54:21;;;;;;;13.93;11.52;;;;;;;13.16;97.28;96156.69;2064046;28;20053;-63
2022/06/04 04:55:24;;;;;;;15.20;13.32;;;;;;;13.19;97.38;96160.88;2063771;28;20038;-63
2022/06/04 04:56:25;;;;;;;14.57;12.30;;;;;;;13.27;97.23;96160.50;2055159;28;20061;-63
2022/06/04 04:57:27;;;;;;;15.48;13.93;;;;;;;13.30;97.22;96161.16;2056108;28;20535;-64
2022/06/04 04:58:28;;;;;;;15.45;13.38;;;;;;;13.38;97.27;96153.75;2067433;28;20447;-64
2022/06/04 04:59:29;;;;;;;15.35;12.98;;;;;;;13.44;97.11;96161.25;2071816;28;20413;-60
2022/06/04 05:00:31;;;;;;;13.63;11.75;;;;;;;13.46;97.34;96154.16;2055190;28;20051;-64
2022/06/04 05:01:33;;;;;;;14.60;10.70;;;;;;;13.58;97.04;96154.38;2055205;28;20047;-63
2022/06/04 05:02:35;;;;;;;11.98;9.88;;;;;;;13.67;97.00;96146.91;2056068;28;20063;-62
2022/06/04 05:03:36;;;;;;;14.50;10.80;;;;;;;13.82;96.99;96152.16;2064166;28;20054;-62
2022/06/04 05:04:37;;;;;;;12.90;10.30;;;;;;;13.89;97.38;96156.94;2055862;28;20551;-64
2022/06/04 05:05:38;;;;;;;12.48;10.27;;;;;;;13.92;96.93;96161.13;2040661;29;20055;-65
2022/06/04 05:06:40;;;;;;;15.18;10.77;;;;;;;13.94;96.95;96161.91;2047827;28;20058;-64
2022/06/04 05:07:41;;;;;;;14.32;9.65;;;;;;;14.09;96.85;96163.63;2071563;28;20048;-64
2022/06/04 05:08:42;;;;;;;12.85;9.70;;;;;;;14.04;96.43;96170.88;2055635;28;20046;-63